KRPH

Details ICAO KRPH
Name GRAHAM MUNI
Region United States
Timezone America/Chicago (UTC-5.0)
Plans Departing 2
Arriving 8
Stats Elevation 1,123 ft / 342 m (AMSL)
Location 33.110231° -98.555283°
Runways 2
Magnetic Variation 4.285° E
Sunrise 2018-05-21 11:32:16 UTC / 2018-05-21 06:32:16 Local
Sunset 2018-05-22 01:32:15 UTC / 2018-05-21 20:32:15 Local
Advertisement - Login to hide

Runways

ID Width Length Bearing (true) Bearing (mag) Surface Threshold Offset Overrun Length
03 75 ft / 23 m 4,205 ft / 1,282 m 39.49° 35.20° Asphalt 0 ft / 0 m 0 ft / 0 m
17 50 ft / 15 m 3,326 ft / 1,014 m 182.65° 178.36° Asphalt 649 ft / 198 m 0 ft / 0 m
21 75 ft / 23 m 4,205 ft / 1,282 m 219.50° 215.21° Asphalt 0 ft / 0 m 0 ft / 0 m
35 50 ft / 15 m 3,326 ft / 1,014 m 2.65° 358.36° Asphalt 0 ft / 0 m 0 ft / 0 m

Map

Weather


0- 5 10 15 20 25 30 35+ Temperature / ° C

Clouds and Precipitation
Forecast for 2018-05-21 18:00 UTC. Updated 2 hours ago

Ground ~20,000 ft ~40,000 ft Winds

METAR

KRPH 211915Z AUTO 35005KT 28/17 A3001 RMK AO2 T02760172 PWINO

TAF

Not found

Frequencies

Recorded 118.02 MHz AWOS 3
Unicom 122.97 MHz CTAF/UNICOM
Warning: Do not use this data for real-world aviation or navigation. No guarantee of current accuracy is given.